createdAt,value
2018-08-30T00:02:09.921Z,26.40
2018-08-30T00:07:12.995Z,29.73
2018-08-30T00:12:16.085Z,29.60
2018-08-30T00:17:19.197Z,32.00
2018-08-30T00:22:22.289Z,32.70
2018-08-30T00:27:25.369Z,32.70
2018-08-30T00:32:28.425Z,33.37
2018-08-30T00:37:31.518Z,32.73
2018-08-30T00:42:34.569Z,33.47
2018-08-30T00:47:37.709Z,35.70
2018-08-30T00:52:40.764Z,37.03
2018-08-30T00:57:44.054Z,36.47
2018-08-30T01:02:47.111Z,35.70
2018-08-30T01:07:50.269Z,35.83
2018-08-30T01:12:54.447Z,36.17
2018-08-30T01:17:57.503Z,36.23
2018-08-30T01:23:00.662Z,38.60
2018-08-30T01:28:03.916Z,35.90
2018-08-30T01:33:07.086Z,34.87
2018-08-30T01:38:10.125Z,38.27
2018-08-30T01:43:13.202Z,34.30
2018-08-30T01:48:16.291Z,33.10
2018-08-30T01:53:19.373Z,31.87
2018-08-30T01:58:22.477Z,33.40
2018-08-30T02:03:25.570Z,31.70
2018-08-30T02:08:28.709Z,31.40
2018-08-30T02:13:31.770Z,33.07
2018-08-30T02:18:34.841Z,33.33
2018-08-30T02:23:37.889Z,32.10
2018-08-30T02:28:41.046Z,30.73
2018-08-30T02:33:44.171Z,32.60
2018-08-30T02:38:47.246Z,31.07
2018-08-30T02:43:50.286Z,30.50
2018-08-30T02:48:53.361Z,29.60
2018-08-30T02:53:56.499Z,31.03
2018-08-30T02:58:59.603Z,31.47
2018-08-30T03:04:02.948Z,31.40
2018-08-30T03:09:07.953Z,29.13
2018-08-30T03:14:12.055Z,26.10
2018-08-30T03:19:15.136Z,24.83
2018-08-30T03:24:18.203Z,24.60
2018-08-30T03:29:21.406Z,23.90
2018-08-30T03:34:24.528Z,22.87
2018-08-30T03:39:27.638Z,20.17
2018-08-30T03:44:30.806Z,20.90
2018-08-30T03:49:33.966Z,18.50
2018-08-30T03:54:37.125Z,18.67
2018-08-30T03:59:41.524Z,19.23
2018-08-30T04:04:45.075Z,19.70
2018-08-30T04:09:49.753Z,19.97
2018-08-30T04:14:55.306Z,19.40
2018-08-30T04:20:00.311Z,18.23
2018-08-30T04:25:04.884Z,20.00
2018-08-30T04:30:09.654Z,19.10
2018-08-30T04:35:13.153Z,19.30
2018-08-30T04:40:16.342Z,19.90
2018-08-30T04:45:19.429Z,20.70
2018-08-30T04:50:22.600Z,20.17
2018-08-30T04:55:25.718Z,20.20
2018-08-30T05:00:28.848Z,20.63
2018-08-30T05:05:32.885Z,19.90
2018-08-30T05:10:36.064Z,19.40
2018-08-30T05:15:39.112Z,18.67
2018-08-30T05:20:42.391Z,17.77
2018-08-30T05:25:45.430Z,17.87
2018-08-30T05:30:48.576Z,16.93
2018-08-30T05:35:51.704Z,18.87
2018-08-30T05:40:55.745Z,17.70
2018-08-30T05:45:58.829Z,17.00
2018-08-30T05:51:02.117Z,16.57
2018-08-30T05:56:05.278Z,16.00
2018-08-30T06:01:08.405Z,16.17
2018-08-30T06:06:14.255Z,16.17
2018-08-30T06:11:18.915Z,17.70
2018-08-30T06:16:24.044Z,16.93
2018-08-30T06:21:28.575Z,17.73
2018-08-30T06:26:33.229Z,18.87
2018-08-30T06:31:37.746Z,18.83
2018-08-30T06:36:42.277Z,18.27
2018-08-30T06:41:46.946Z,17.90
2018-08-30T06:46:51.358Z,19.10
2018-08-30T06:51:54.469Z,18.33
2018-08-30T06:56:57.623Z,19.13
2018-08-30T07:02:00.673Z,17.20
2018-08-30T07:07:03.898Z,17.83
2018-08-30T07:12:07.050Z,17.40
2018-08-30T07:17:10.221Z,17.50
2018-08-30T07:22:13.329Z,16.97
2018-08-30T07:27:17.541Z,15.10
2018-08-30T07:32:20.650Z,14.83
2018-08-30T07:37:23.807Z,16.43
2018-08-30T07:42:26.854Z,14.83
2018-08-30T07:47:35.802Z,15.03
2018-08-30T07:52:39.182Z,13.87
2018-08-30T07:57:42.325Z,13.87
2018-08-30T08:02:46.191Z,13.80
2018-08-30T08:07:49.372Z,13.50
2018-08-30T08:12:52.536Z,13.27
2018-08-30T08:17:56.374Z,12.20
2018-08-30T08:23:00.088Z,12.13
2018-08-30T08:28:03.235Z,11.97
2018-08-30T08:33:06.448Z,11.40
2018-08-30T08:38:09.574Z,11.17
2018-08-30T08:43:13.491Z,11.20
2018-08-30T08:48:16.629Z,11.53
2018-08-30T08:53:19.766Z,10.97
2018-08-30T08:58:22.948Z,10.53
2018-08-30T09:03:26.035Z,11.33
2018-08-30T09:08:29.261Z,10.37
2018-08-30T09:13:32.590Z,9.90
2018-08-30T09:18:35.659Z,10.50
2018-08-30T09:23:38.788Z,9.07
2018-08-30T09:28:41.979Z,9.33
2018-08-30T09:33:45.237Z,8.50
2018-08-30T09:38:48.266Z,9.17
2018-08-30T09:43:51.441Z,8.03
2018-08-30T09:48:55.814Z,8.97
2018-08-30T09:53:59.067Z,8.40
2018-08-30T09:59:03.353Z,7.80
2018-08-30T10:04:07.442Z,9.10
2018-08-30T10:09:11.242Z,7.37
2018-08-30T10:14:14.334Z,8.00
2018-08-30T10:19:18.327Z,8.33
2018-08-30T10:24:22.024Z,8.50
2018-08-30T10:29:25.300Z,9.03
2018-08-30T10:34:28.397Z,8.00
2018-08-30T10:39:31.585Z,10.53
2018-08-30T10:44:34.798Z,8.20
2018-08-30T10:49:38.030Z,8.37
2018-08-30T10:54:43.277Z,7.57
2018-08-30T10:59:46.416Z,7.50
2018-08-30T11:04:49.577Z,7.37
2018-08-30T11:09:54.372Z,8.18
2018-08-30T11:14:57.654Z,7.30
2018-08-30T11:20:00.830Z,7.27
2018-08-30T11:25:04.146Z,7.30
2018-08-30T11:30:09.026Z,6.87
2018-08-30T11:35:12.446Z,7.30
2018-08-30T11:40:15.612Z,7.37
2018-08-30T11:45:18.923Z,7.30
2018-08-30T11:50:22.138Z,7.90
2018-08-30T11:55:25.442Z,8.37
2018-08-30T12:00:28.565Z,8.30
2018-08-30T12:05:32.549Z,6.97
2018-08-30T12:10:37.554Z,6.90
2018-08-30T12:15:40.658Z,7.13
2018-08-30T12:20:43.935Z,7.27
2018-08-30T12:25:47.027Z,7.00
2018-08-30T12:30:50.103Z,7.20
2018-08-30T12:35:53.703Z,7.00
2018-08-30T12:40:57.151Z,6.53
2018-08-30T12:46:00.969Z,6.90
2018-08-30T12:51:04.795Z,4.70
2018-08-30T12:56:07.923Z,4.40
2018-08-30T13:01:12.766Z,4.90
2018-08-30T13:06:16.723Z,5.30
2018-08-30T13:11:20.024Z,5.50
2018-08-30T13:16:22.939Z,5.50
2018-08-30T13:21:26.152Z,5.20
2018-08-30T13:26:29.216Z,6.37
2018-08-30T13:31:32.616Z,4.80
2018-08-30T13:36:35.564Z,4.40
2018-08-30T13:41:39.109Z,4.20
2018-08-30T13:46:42.189Z,5.23
2018-08-30T13:51:45.382Z,4.43
2018-08-30T13:56:48.315Z,4.43
2018-08-30T14:01:51.292Z,4.57
2018-08-30T14:06:54.299Z,6.10
2018-08-30T14:11:57.505Z,5.50
2018-08-30T14:17:00.245Z,4.37
2018-08-30T14:22:03.354Z,4.00
2018-08-30T14:27:06.524Z,3.60
2018-08-30T14:32:09.622Z,3.23
2018-08-30T14:37:12.778Z,3.23
2018-08-30T14:42:15.787Z,3.10
2018-08-30T14:47:19.305Z,3.03
2018-08-30T14:52:22.461Z,3.13
2018-08-30T14:57:25.480Z,2.83
2018-08-30T15:02:28.546Z,2.83
2018-08-30T15:07:31.663Z,3.00
2018-08-30T15:12:34.808Z,2.00
2018-08-30T15:17:38.430Z,2.80
2018-08-30T15:22:42.679Z,2.50
2018-08-30T15:27:45.722Z,3.07
2018-08-30T15:32:48.760Z,3.40
2018-08-30T15:37:51.857Z,2.60
2018-08-30T15:42:54.910Z,2.37
2018-08-30T15:47:57.993Z,2.67
2018-08-30T15:53:01.178Z,3.00
2018-08-30T15:58:04.304Z,3.13
2018-08-30T16:03:08.405Z,3.63
2018-08-30T16:08:11.759Z,2.70
2018-08-30T16:13:15.087Z,3.07
2018-08-30T16:18:18.204Z,3.67
2018-08-30T16:23:41.347Z,2.53
2018-08-30T16:28:44.434Z,3.03
2018-08-30T16:33:47.680Z,2.53
2018-08-30T16:44:14.970Z,3.10
2018-08-30T16:49:18.065Z,3.30
2018-08-30T16:54:21.149Z,2.07
2018-08-30T16:59:24.344Z,2.87
2018-08-30T17:04:27.507Z,2.00
2018-08-30T17:09:30.729Z,2.33
2018-08-30T17:14:33.884Z,2.07
2018-08-30T17:19:37.070Z,1.60
2018-08-30T17:24:40.194Z,1.70
2018-08-30T17:29:44.619Z,2.40
2018-08-30T17:34:47.963Z,2.30
2018-08-30T17:39:51.276Z,1.77
2018-08-30T17:44:55.241Z,1.53
2018-08-30T17:49:58.373Z,1.33
2018-08-30T17:55:01.442Z,1.80
2018-08-30T18:00:06.242Z,1.77
2018-08-30T18:05:09.309Z,2.03
2018-08-30T18:10:12.437Z,1.73
2018-08-30T18:15:15.890Z,1.67
2018-08-30T18:20:19.026Z,2.20
2018-08-30T18:25:22.198Z,1.40
2018-08-30T18:30:25.262Z,1.70
2018-08-30T18:35:28.361Z,2.07
2018-08-30T18:40:31.473Z,1.40
2018-08-30T18:45:34.535Z,1.90
2018-08-30T18:50:37.618Z,1.30
2018-08-30T18:55:40.686Z,1.20
2018-08-30T19:00:43.767Z,1.50
2018-08-30T19:05:46.849Z,1.80
2018-08-30T19:10:49.946Z,2.27
2018-08-30T19:15:58.560Z,1.10
2018-08-30T19:21:01.653Z,1.23
2018-08-30T19:26:05.961Z,1.20
2018-08-30T19:31:08.995Z,1.50
2018-08-30T19:36:17.545Z,1.27
2018-08-30T19:41:21.829Z,3.27
2018-08-30T19:46:24.937Z,1.10
2018-08-30T19:51:28.077Z,1.77
2018-08-30T19:56:31.165Z,1.20
2018-08-30T20:01:34.368Z,1.43
2018-08-30T20:06:37.527Z,1.20
2018-08-30T20:11:40.663Z,1.13
2018-08-30T20:16:43.739Z,1.17
2018-08-30T20:21:46.819Z,1.93
2018-08-30T20:26:49.911Z,1.60
2018-08-30T20:31:52.971Z,2.20
2018-08-30T20:36:56.094Z,1.53
2018-08-30T20:41:59.214Z,1.30
2018-08-30T20:47:02.384Z,1.60
2018-08-30T20:52:05.813Z,1.10
2018-08-30T20:57:08.927Z,1.20
2018-08-30T21:02:12.304Z,1.77
2018-08-30T21:07:15.413Z,1.10
2018-08-30T21:12:18.707Z,1.60
2018-08-30T21:17:21.893Z,1.73
2018-08-30T21:22:24.932Z,1.20
2018-08-30T21:27:27.984Z,1.20
2018-08-30T21:32:31.370Z,1.57
2018-08-30T21:37:34.441Z,1.20
2018-08-30T21:42:37.642Z,1.77
2018-08-30T21:47:40.737Z,1.50
2018-08-30T21:52:43.923Z,1.30
2018-08-30T21:57:47.010Z,1.00
2018-08-30T22:02:50.238Z,1.20
2018-08-30T22:07:53.350Z,1.07
2018-08-30T22:12:56.493Z,1.70
2018-08-30T22:17:59.497Z,1.67
2018-08-30T22:23:02.527Z,1.10
2018-08-30T22:28:06.081Z,1.17
2018-08-30T22:33:09.201Z,1.60
2018-08-30T22:38:12.295Z,1.40
2018-08-30T22:43:15.393Z,1.50
2018-08-30T22:48:18.448Z,1.40
2018-08-30T22:53:21.518Z,1.47
2018-08-30T22:58:24.571Z,1.77
2018-08-30T23:03:27.703Z,1.57
2018-08-30T23:08:30.815Z,1.40
2018-08-30T23:13:33.857Z,1.33
2018-08-30T23:18:36.983Z,1.57
2018-08-30T23:23:40.048Z,2.27
2018-08-30T23:28:43.121Z,1.80
2018-08-30T23:33:46.303Z,1.83
2018-08-30T23:38:49.560Z,1.83
2018-08-30T23:43:52.726Z,1.90
2018-08-30T23:48:55.830Z,1.83
2018-08-30T23:53:58.921Z,1.20
2018-08-30T23:59:19.276Z,1.30
